Participated 2 times
Between 1937 and 1938
Willi Oberbeck, Germany
Tour de France 2026 starts from Barcelona, Spain in

Stats and Facts from
Tour de France.

2026   2025   2024   2023  2022  2021  2020  2019   2018  2017   2016   2015  2014  2013   2012   2011  2010   2009   2008   2007   2006   2005   2004   2003   2002   2001   2000   1999   1998   1997  1996   1995   1994   1993   1992  1991   1990   1989   1988   1987   1986   1985   1984   1983  1982  1981   1980   1979  1978  1977   1976  1975  1974  1973   1972   1971   1970  1969   1968   1967   1966   1965  1964  1963   1962   1961   1960   1959   1958   1957  1956   1955   1954   1953   1952  1951  1950  1949   1948  1947  1939   1938   1937   1936   1935   1934   1933  1932   1931   1930  1929   1928   1927   1926  1925  1924  1923   1922   1921   1920   1919  1914   1913   1912   1911   1910  1909   1908   1907   1906  1905  1904   1903 

Tourstats
Sitemap

After stage 21 - 2025:
 16451 starters.
  5463 different riders.
  689 teams.
  2398 stages.
  470 restdays.
  466506.50 km.
  5925 abandoned riders.

Click map for 1951 route.
Facts from Tour de France 1951 Additional info and images from 1951.
  |   Stages.  |   Stage winners.  |   Days in jerseys.  |   Teams.  |   All riders.  |   All riders by age.  |   All riders from.  |  

  |   Rookies.  |   Withdrawls.  |   Average speed.  |   GC.  |   Polka  |   Green  |   White  |   Summits. (In tour)  |   Miscellaneous.  |  

Stage 20 on July 25th. 1951
Pick a stage:  1  2  3  4  5  6  7  8  9  10  11  12  13  14  15  16  17  18  19  20  21  22  23  24  

After stage 20:    Hugo Koblet  
  GapBriançon | Dist: 165.00km. | Winner: Fausto Coppi

Podium
1  Col de Vars Fausto Coppiafter91.00 km.

1  Col de l'Izoard Fausto Coppiafter141.00 km.


Average speed for all riders in stage:  27,853 km./hr.

1
 Fausto Coppi  Italy05h 34' 04"=29,635  km/h

2
 Roger Buchonnet  Est-Sud Est05h 37' 47"+  00:03:43 =29,309  km/h

3
 Hugo Koblet  Switzerland05h 38' 13"+  00:04:09 =29,271  km/h

4  Gino Bartali  Italy05h 41' 30"+  00:07:26 =28,990  km/h

5  Stan Ockers  Belgium05h 43' 07"+  00:09:03 =28,853  km/h

6  Lucien Lazarides  France05h 43' 07"+  00:09:03 =28,853  km/h

7  Jean Robic  Paris05h 45' 43"+  00:11:39 =28,636  km/h

8  Gilbert Bauvin  Est-Sud Est05h 45' 43"+  00:11:39 =28,636  km/h

9  Raphaël Geminiani  France05h 45' 43"+  00:11:39 =28,636  km/h

10  Fiorenzo Magni  Italy05h 45' 50"+  00:11:46 =28,627  km/h

11  Manuel Rodriguez  Spain05h 45' 50"+  00:11:46 =28,627  km/h

12  Bernardo Ruíz  Spain05h 45' 52"+  00:11:48 =28,624  km/h

13  Alois De Hertog  Belgium05h 47' 35"+  00:13:31 =28,482  km/h

14  Serifano Biagioni  Italy05h 47' 57"+  00:13:53 =28,452  km/h

15  Andrea Carrea  Italy05h 47' 57"+  00:13:53 =28,452  km/h

16  Marcel Verschueren  Belgium05h 47' 57"+  00:13:53 =28,452  km/h

17  Jean Diederich  Luxembourg05h 48' 04"+  00:14:00 =28,443  km/h

18  Pierre Cogan  Ouest-Sud Ouest05h 49' 04"+  00:15:00 =28,361  km/h

19  Gottfried Weilenmann  Switzerland05h 49' 20"+  00:15:16 =28,340  km/h

20  Armand Baeyens  Belgium05h 50' 26"+  00:16:22 =28,251  km/h

21  Adolphe Deledda  Est-Sud Est05h 50' 28"+  00:16:24 =28,248  km/h

22  Jean-Baptiste Dotto  Est-Sud Est05h 50' 35"+  00:16:31 =28,239  km/h

23  Vincent Vitetta  Est-Sud Est05h 50' 35"+  00:16:31 =28,239  km/h

24  Marcel De Mulder  Belgium05h 50' 35"+  00:16:31 =28,239  km/h

25  Jean-Marie Goasmat  Ouest-Sud Ouest05h 50' 35"+  00:16:31 =28,239  km/h

26  Eduard Van Ende  Belgium05h 50' 35"+  00:16:31 =28,239  km/h

27  Pierre Barbotin  France05h 50' 56"+  00:16:52 =28,210  km/h

28  Paul Giguet  Est-Sud Est05h 52' 53"+  00:18:49 =28,055  km/h

29  Angelo Colinelli  Est-Sud Est05h 52' 53"+  00:18:49 =28,055  km/h

30  Roger Decock  Belgium05h 52' 53"+  00:18:49 =28,055  km/h

31  Luciano Pezzi  Italy05h 53' 28"+  00:19:24 =28,008  km/h

32  Ettore Milano  Italy05h 53' 28"+  00:19:24 =28,008  km/h

33  Lucien Teisseire  France05h 54' 18"+  00:20:14 =27,942  km/h

34  Roger Walkowiak  Ouest-Sud Ouest05h 54' 18"+  00:20:14 =27,942  km/h

35  Hilaire Couvreur  Belgium05h 54' 18"+  00:20:14 =27,942  km/h

36  Joseph Morvan  Ouest-Sud Ouest05h 54' 18"+  00:20:14 =27,942  km/h

37  Louison Bobet  France05h 54' 18"+  00:20:14 =27,942  km/h

38  Bernard Gauthier  France05h 54' 44"+  00:20:40 =27,908  km/h

39  Hans Sommer  Switzerland05h 56' 43"+  00:22:39 =27,753  km/h

40  Georges Meunier  Ouest-Sud Ouest05h 56' 43"+  00:22:39 =27,753  km/h

41  Marcel Huber  Switzerland05h 56' 43"+  00:22:39 =27,753  km/h

42  Virgilio Salimbeni  Italy05h 56' 43"+  00:22:39 =27,753  km/h

43  Nello Lauredi  France05h 57' 21"+  00:23:17 =27,704  km/h

44  Franco Franchi  Italy05h 57' 27"+  00:23:23 =27,696  km/h

45  José Serra Gil  Spain05h 58' 35"+  00:24:31 =27,609  km/h

46  André Rosseel  Belgium05h 58' 35"+  00:24:31 =27,609  km/h

47  Leo Weilenmann  Switzerland05h 58' 50"+  00:24:46 =27,589  km/h

48  Georges Aeschlimann  Switzerland05h 58' 50"+  00:24:46 =27,589  km/h

49  André Labeylie  Île-de-France05h 59' 34"+  00:25:30 =27,533  km/h

50  Giuseppe Mirando  Est-Sud Est06h 00' 24"+  00:26:20 =27,469  km/h

51  Jean-Louis Carle  Paris06h 01' 06"+  00:27:02 =27,416  km/h

52  Louis Caput  Paris06h 01' 26"+  00:27:22 =27,391  km/h

53  Jean-Apotre Lazarides  France06h 01' 36"+  00:27:32 =27,378  km/h

54  Louis Deprez  Île-de-France06h 02' 14"+  00:28:10 =27,330  km/h

55  Edouard Muller  France06h 04' 11"+  00:30:07 =27,184  km/h

56  Willy Kemp  Luxembourg06h 05' 17"+  00:31:13 =27,102  km/h

57  Pierre Brambilla  Est-Sud Est06h 05' 17"+  00:31:13 =27,102  km/h

58  Gino Sciardis  Île-de-France06h 05' 17"+  00:31:13 =27,102  km/h

59  Dalmácio Langarica  Spain06h 05' 17"+  00:31:13 =27,102  km/h

60  Roger Leveque  Ouest-Sud Ouest06h 05' 46"+  00:31:42 =27,066  km/h

61  Jacques Marinelli  Île-de-France06h 06' 50"+  00:32:46 =26,988  km/h

62  Francisco Masip  Spain06h 07' 09"+  00:33:05 =26,964  km/h

63  Jean Mayen  North Africa06h 07' 09"+  00:33:05 =26,964  km/h

64  Germain Derycke  Belgium06h 07' 47"+  00:33:43 =26,918  km/h

65  Alois Vansteenkiste  Belgium06h 08' 15"+  00:34:11 =26,884  km/h

66  Jean Baldassari  France06h 08' 15"+  00:34:11 =26,884  km/h

67  Raoul Remy  France06h 09' 07"+  00:35:03 =26,821  km/h

68  Jean Gueguen  France06h 09' 07"+  00:35:03 =26,821  km/h

71  Emile Baffert  Est-Sud Est06h 10' 25"+  00:36:21 =26,727  km/h

69  Abdel-Kader Zaaf  North Africa06h 10' 36"+  00:36:32 =26,713  km/h

70  Henri Kass  Luxembourg06h 10' 58"+  00:36:54 =26,687  km/h


Withdrawls: 2
 RiderTeamReason
79   Maurice Diot ParisDid not finish
101   Robert Castelin Est-Sud EstDid not finish
Todays birthdays.

1869 • Adolphe Dorion
1884 • Achille Germain
1886 • Emile Eigeldinger
1896 • Andre Léger
1907 • Frans Dictus
1921 • Alberto Ghirardi
1934 • Joseph Planckaert
1945 • Leif Mortensen
1952 • Alex Van Linden
1960 • Roberto Bressan
1960 • Bernard Chesneau
1962 • Paul Watson
1963 • Juan Rozas
1965 • Jean-Pierre Heynderickx
1967 • José-Manuel Oliveira
1970 • Wilfried Nelissen
1980 • Nick Nuyens
1996 • Jai Hindley

 

Optimized for Chrome - Edge
and Opera browsers.